sensor_id;sensor_type;location;lat;lon;timestamp;temperature;humidity
25410;DHT22;13339;50.840;4.346;2023-02-28T00:00:22;4.60;99.90
25410;DHT22;13339;50.840;4.346;2023-02-28T00:02:48;4.70;99.90
25410;DHT22;13339;50.840;4.346;2023-02-28T00:05:21;4.70;99.90
25410;DHT22;13339;50.840;4.346;2023-02-28T00:07:47;4.60;99.90
25410;DHT22;13339;50.840;4.346;2023-02-28T00:10:15;4.60;99.90
25410;DHT22;13339;50.840;4.346;2023-02-28T00:12:44;4.40;99.90
25410;DHT22;13339;50.840;4.346;2023-02-28T00:15:10;4.50;99.90
25410;DHT22;13339;50.840;4.346;2023-02-28T00:17:37;4.70;99.90
25410;DHT22;13339;50.840;4.346;2023-02-28T00:20:03;4.70;99.90
25410;DHT22;13339;50.840;4.346;2023-02-28T00:22:30;4.70;99.90
25410;DHT22;13339;50.840;4.346;2023-02-28T00:24:56;4.60;99.90
25410;DHT22;13339;50.840;4.346;2023-02-28T00:27:22;4.30;99.90
25410;DHT22;13339;50.840;4.346;2023-02-28T00:29:47;4.30;99.90
25410;DHT22;13339;50.840;4.346;2023-02-28T00:32:13;4.20;99.90
25410;DHT22;13339;50.840;4.346;2023-02-28T00:34:39;4.10;99.90
25410;DHT22;13339;50.840;4.346;2023-02-28T00:37:06;4.10;99.90
25410;DHT22;13339;50.840;4.346;2023-02-28T00:39:36;4.10;99.90
25410;DHT22;13339;50.840;4.346;2023-02-28T00:42:03;4.20;99.90
25410;DHT22;13339;50.840;4.346;2023-02-28T00:44:29;4.30;99.90
25410;DHT22;13339;50.840;4.346;2023-02-28T00:46:55;4.10;99.90
25410;DHT22;13339;50.840;4.346;2023-02-28T00:49:21;4.00;99.90
25410;DHT22;13339;50.840;4.346;2023-02-28T00:51:48;4.00;99.90
25410;DHT22;13339;50.840;4.346;2023-02-28T00:54:13;4.00;99.90
25410;DHT22;13339;50.840;4.346;2023-02-28T00:56:39;4.10;99.90
25410;DHT22;13339;50.840;4.346;2023-02-28T00:59:04;4.10;99.90
25410;DHT22;13339;50.840;4.346;2023-02-28T01:01:30;4.10;99.90
25410;DHT22;13339;50.840;4.346;2023-02-28T01:03:57;4.20;99.90
25410;DHT22;13339;50.840;4.346;2023-02-28T01:06:23;4.00;99.90
25410;DHT22;13339;50.840;4.346;2023-02-28T01:08:49;4.00;99.90
25410;DHT22;13339;50.840;4.346;2023-02-28T01:11:16;3.80;99.90
25410;DHT22;13339;50.840;4.346;2023-02-28T01:13:43;3.60;99.90
25410;DHT22;13339;50.840;4.346;2023-02-28T01:16:09;3.80;99.90
25410;DHT22;13339;50.840;4.346;2023-02-28T01:18:36;4.00;99.90
25410;DHT22;13339;50.840;4.346;2023-02-28T01:21:06;4.00;99.90
25410;DHT22;13339;50.840;4.346;2023-02-28T01:23:31;4.10;99.90
25410;DHT22;13339;50.840;4.346;2023-02-28T01:26:06;4.20;99.90
25410;DHT22;13339;50.840;4.346;2023-02-28T01:28:33;4.30;99.90
25410;DHT22;13339;50.840;4.346;2023-02-28T01:30:58;4.20;99.90
25410;DHT22;13339;50.840;4.346;2023-02-28T01:33:24;4.00;99.90
25410;DHT22;13339;50.840;4.346;2023-02-28T01:36:00;4.10;99.90
25410;DHT22;13339;50.840;4.346;2023-02-28T01:38:26;3.70;99.90
25410;DHT22;13339;50.840;4.346;2023-02-28T01:40:52;3.70;99.90
25410;DHT22;13339;50.840;4.346;2023-02-28T01:43:28;3.50;99.90
25410;DHT22;13339;50.840;4.346;2023-02-28T01:45:56;3.30;99.90
25410;DHT22;13339;50.840;4.346;2023-02-28T01:48:26;3.40;99.90
25410;DHT22;13339;50.840;4.346;2023-02-28T01:50:54;3.50;99.90
25410;DHT22;13339;50.840;4.346;2023-02-28T01:53:24;3.60;99.90
25410;DHT22;13339;50.840;4.346;2023-02-28T01:55:54;3.50;99.90
25410;DHT22;13339;50.840;4.346;2023-02-28T01:58:20;3.40;99.90
25410;DHT22;13339;50.840;4.346;2023-02-28T02:00:46;3.40;99.90
25410;DHT22;13339;50.840;4.346;2023-02-28T02:03:16;3.40;99.90
25410;DHT22;13339;50.840;4.346;2023-02-28T02:05:44;3.40;99.90
25410;DHT22;13339;50.840;4.346;2023-02-28T02:08:17;3.40;99.90
25410;DHT22;13339;50.840;4.346;2023-02-28T02:10:45;3.30;99.90
25410;DHT22;13339;50.840;4.346;2023-02-28T02:17:11;3.30;99.90
25410;DHT22;13339;50.840;4.346;2023-02-28T02:36:15;3.50;99.90
25410;DHT22;13339;50.840;4.346;2023-02-28T02:38:53;3.70;99.90
25410;DHT22;13339;50.840;4.346;2023-02-28T02:41:50;3.50;99.90
25410;DHT22;13339;50.840;4.346;2023-02-28T02:44:47;3.50;99.90
25410;DHT22;13339;50.840;4.346;2023-02-28T02:47:17;3.20;99.90
25410;DHT22;13339;50.840;4.346;2023-02-28T02:49:49;3.20;99.90
25410;DHT22;13339;50.840;4.346;2023-02-28T02:52:20;3.20;99.90
25410;DHT22;13339;50.840;4.346;2023-02-28T02:54:49;3.20;99.90
25410;DHT22;13339;50.840;4.346;2023-02-28T02:57:23;3.20;99.90
25410;DHT22;13339;50.840;4.346;2023-02-28T02:59:51;3.30;99.90
25410;DHT22;13339;50.840;4.346;2023-02-28T03:02:20;3.10;99.90
25410;DHT22;13339;50.840;4.346;2023-02-28T03:04:53;3.20;99.90
25410;DHT22;13339;50.840;4.346;2023-02-28T03:07:19;3.20;99.90
25410;DHT22;13339;50.840;4.346;2023-02-28T03:09:52;3.40;99.90
25410;DHT22;13339;50.840;4.346;2023-02-28T03:12:18;3.30;99.90
25410;DHT22;13339;50.840;4.346;2023-02-28T03:19:52;3.30;99.90
25410;DHT22;13339;50.840;4.346;2023-02-28T03:22:45;3.40;99.90
25410;DHT22;13339;50.840;4.346;2023-02-28T03:25:44;3.40;99.90
25410;DHT22;13339;50.840;4.346;2023-02-28T03:30:52;3.30;99.90
25410;DHT22;13339;50.840;4.346;2023-02-28T03:33:21;3.00;99.90
25410;DHT22;13339;50.840;4.346;2023-02-28T03:35:59;2.80;99.90
25410;DHT22;13339;50.840;4.346;2023-02-28T03:38:31;2.90;99.90
25410;DHT22;13339;50.840;4.346;2023-02-28T03:41:09;3.00;99.90
25410;DHT22;13339;50.840;4.346;2023-02-28T03:43:38;3.00;99.90
25410;DHT22;13339;50.840;4.346;2023-02-28T03:46:09;3.00;99.90
25410;DHT22;13339;50.840;4.346;2023-02-28T03:48:49;3.10;99.90
25410;DHT22;13339;50.840;4.346;2023-02-28T03:51:19;2.90;99.90
25410;DHT22;13339;50.840;4.346;2023-02-28T03:53:51;2.70;99.90
25410;DHT22;13339;50.840;4.346;2023-02-28T03:56:21;2.80;99.90
25410;DHT22;13339;50.840;4.346;2023-02-28T03:58:55;2.80;99.90
25410;DHT22;13339;50.840;4.346;2023-02-28T04:03:57;2.90;99.90
25410;DHT22;13339;50.840;4.346;2023-02-28T04:06:23;2.80;99.90
25410;DHT22;13339;50.840;4.346;2023-02-28T04:08:50;2.90;99.90
25410;DHT22;13339;50.840;4.346;2023-02-28T04:11:34;2.90;99.90
25410;DHT22;13339;50.840;4.346;2023-02-28T04:14:01;2.90;99.90
25410;DHT22;13339;50.840;4.346;2023-02-28T04:16:28;2.70;99.90
25410;DHT22;13339;50.840;4.346;2023-02-28T04:18:53;2.60;99.90
25410;DHT22;13339;50.840;4.346;2023-02-28T04:21:19;2.50;99.90
25410;DHT22;13339;50.840;4.346;2023-02-28T04:23:47;2.60;99.90
25410;DHT22;13339;50.840;4.346;2023-02-28T04:26:13;2.70;99.90
25410;DHT22;13339;50.840;4.346;2023-02-28T04:28:38;2.80;99.90
25410;DHT22;13339;50.840;4.346;2023-02-28T04:31:05;3.00;99.90
25410;DHT22;13339;50.840;4.346;2023-02-28T04:33:32;2.80;99.90
25410;DHT22;13339;50.840;4.346;2023-02-28T04:36:08;2.80;99.90
25410;DHT22;13339;50.840;4.346;2023-02-28T04:38:35;2.70;99.90
25410;DHT22;13339;50.840;4.346;2023-02-28T04:41:01;2.60;99.90
25410;DHT22;13339;50.840;4.346;2023-02-28T04:43:28;2.50;99.90
25410;DHT22;13339;50.840;4.346;2023-02-28T04:45:55;2.60;99.90
25410;DHT22;13339;50.840;4.346;2023-02-28T04:48:25;2.70;99.90
25410;DHT22;13339;50.840;4.346;2023-02-28T04:50:52;2.80;99.90
25410;DHT22;13339;50.840;4.346;2023-02-28T04:53:18;2.90;99.90
25410;DHT22;13339;50.840;4.346;2023-02-28T04:55:44;3.00;99.90
25410;DHT22;13339;50.840;4.346;2023-02-28T04:58:10;3.10;99.90
25410;DHT22;13339;50.840;4.346;2023-02-28T05:00:35;3.20;99.90
25410;DHT22;13339;50.840;4.346;2023-02-28T05:03:01;2.90;99.90
25410;DHT22;13339;50.840;4.346;2023-02-28T05:05:26;2.80;99.90
25410;DHT22;13339;50.840;4.346;2023-02-28T05:07:52;2.70;99.90
25410;DHT22;13339;50.840;4.346;2023-02-28T05:10:19;2.80;99.90
25410;DHT22;13339;50.840;4.346;2023-02-28T05:12:44;2.60;99.90
25410;DHT22;13339;50.840;4.346;2023-02-28T05:15:14;2.40;99.90
25410;DHT22;13339;50.840;4.346;2023-02-28T05:17:39;2.30;99.90
25410;DHT22;13339;50.840;4.346;2023-02-28T05:20:06;2.10;99.90
25410;DHT22;13339;50.840;4.346;2023-02-28T05:22:32;2.20;99.90
25410;DHT22;13339;50.840;4.346;2023-02-28T05:24:57;2.30;99.90
25410;DHT22;13339;50.840;4.346;2023-02-28T05:27:23;2.40;99.90
25410;DHT22;13339;50.840;4.346;2023-02-28T05:29:49;2.30;99.90
25410;DHT22;13339;50.840;4.346;2023-02-28T05:32:15;2.30;99.90
25410;DHT22;13339;50.840;4.346;2023-02-28T05:34:41;2.30;99.90
25410;DHT22;13339;50.840;4.346;2023-02-28T05:37:14;2.30;99.90
25410;DHT22;13339;50.840;4.346;2023-02-28T05:39:41;2.30;99.90
25410;DHT22;13339;50.840;4.346;2023-02-28T05:42:07;2.40;99.90
25410;DHT22;13339;50.840;4.346;2023-02-28T05:44:34;2.60;99.90
25410;DHT22;13339;50.840;4.346;2023-02-28T05:47:00;2.50;99.90
25410;DHT22;13339;50.840;4.346;2023-02-28T05:49:25;2.60;99.90
25410;DHT22;13339;50.840;4.346;2023-02-28T05:51:51;2.50;99.90
25410;DHT22;13339;50.840;4.346;2023-02-28T05:54:16;2.60;99.90
25410;DHT22;13339;50.840;4.346;2023-02-28T05:56:42;2.70;99.90
25410;DHT22;13339;50.840;4.346;2023-02-28T05:59:14;2.80;99.90
25410;DHT22;13339;50.840;4.346;2023-02-28T06:01:41;2.70;99.90
25410;DHT22;13339;50.840;4.346;2023-02-28T06:04:09;2.80;99.90
25410;DHT22;13339;50.840;4.346;2023-02-28T06:06:36;2.90;99.90
25410;DHT22;13339;50.840;4.346;2023-02-28T06:09:06;3.20;99.90
25410;DHT22;13339;50.840;4.346;2023-02-28T06:11:32;3.20;99.90
25410;DHT22;13339;50.840;4.346;2023-02-28T06:13:59;3.20;99.90
25410;DHT22;13339;50.840;4.346;2023-02-28T06:16:27;3.10;99.90
25410;DHT22;13339;50.840;4.346;2023-02-28T06:18:52;2.80;99.90
25410;DHT22;13339;50.840;4.346;2023-02-28T06:21:20;2.60;99.90
25410;DHT22;13339;50.840;4.346;2023-02-28T06:23:46;2.60;99.90
25410;DHT22;13339;50.840;4.346;2023-02-28T06:26:12;2.80;99.90
25410;DHT22;13339;50.840;4.346;2023-02-28T06:28:37;2.70;99.90
25410;DHT22;13339;50.840;4.346;2023-02-28T06:31:08;2.90;99.90
25410;DHT22;13339;50.840;4.346;2023-02-28T06:33:35;3.00;99.90
25410;DHT22;13339;50.840;4.346;2023-02-28T06:36:01;3.10;99.90
25410;DHT22;13339;50.840;4.346;2023-02-28T06:38:26;3.10;99.90
25410;DHT22;13339;50.840;4.346;2023-02-28T06:40:56;3.00;99.90
25410;DHT22;13339;50.840;4.346;2023-02-28T06:43:23;3.00;99.90
25410;DHT22;13339;50.840;4.346;2023-02-28T06:45:50;3.00;99.90
25410;DHT22;13339;50.840;4.346;2023-02-28T06:48:16;3.00;99.90
25410;DHT22;13339;50.840;4.346;2023-02-28T06:50:42;2.80;99.90
25410;DHT22;13339;50.840;4.346;2023-02-28T06:53:07;2.80;99.90
25410;DHT22;13339;50.840;4.346;2023-02-28T06:55:33;2.90;99.90
25410;DHT22;13339;50.840;4.346;2023-02-28T06:57:58;3.00;99.90
25410;DHT22;13339;50.840;4.346;2023-02-28T07:00:24;2.90;99.90
25410;DHT22;13339;50.840;4.346;2023-02-28T07:02:50;3.20;99.90
25410;DHT22;13339;50.840;4.346;2023-02-28T07:05:16;3.20;99.90
25410;DHT22;13339;50.840;4.346;2023-02-28T07:07:42;3.40;99.90
25410;DHT22;13339;50.840;4.346;2023-02-28T07:10:13;3.40;99.90
25410;DHT22;13339;50.840;4.346;2023-02-28T07:12:42;3.40;99.90
25410;DHT22;13339;50.840;4.346;2023-02-28T07:15:09;3.50;99.90
25410;DHT22;13339;50.840;4.346;2023-02-28T07:17:34;3.60;99.90
25410;DHT22;13339;50.840;4.346;2023-02-28T07:20:00;3.70;99.90
25410;DHT22;13339;50.840;4.346;2023-02-28T07:22:26;3.60;99.90
25410;DHT22;13339;50.840;4.346;2023-02-28T07:24:51;3.70;99.90
25410;DHT22;13339;50.840;4.346;2023-02-28T07:27:17;3.70;99.90
25410;DHT22;13339;50.840;4.346;2023-02-28T07:29:49;3.70;99.90
25410;DHT22;13339;50.840;4.346;2023-02-28T07:32:15;3.70;99.90
25410;DHT22;13339;50.840;4.346;2023-02-28T07:34:41;3.90;99.90
25410;DHT22;13339;50.840;4.346;2023-02-28T07:37:06;3.90;99.90
25410;DHT22;13339;50.840;4.346;2023-02-28T07:39:32;4.00;99.90
25410;DHT22;13339;50.840;4.346;2023-02-28T07:41:58;4.10;99.90
25410;DHT22;13339;50.840;4.346;2023-02-28T07:44:25;4.00;99.90
25410;DHT22;13339;50.840;4.346;2023-02-28T07:46:51;3.90;99.90
25410;DHT22;13339;50.840;4.346;2023-02-28T07:49:18;3.90;99.90
25410;DHT22;13339;50.840;4.346;2023-02-28T07:51:43;4.00;99.90
25410;DHT22;13339;50.840;4.346;2023-02-28T07:54:09;4.30;99.90
25410;DHT22;13339;50.840;4.346;2023-02-28T07:56:34;4.60;99.90
25410;DHT22;13339;50.840;4.346;2023-02-28T07:59:00;4.60;99.90
25410;DHT22;13339;50.840;4.346;2023-02-28T08:01:26;4.70;99.90
25410;DHT22;13339;50.840;4.346;2023-02-28T08:03:52;4.80;99.90
25410;DHT22;13339;50.840;4.346;2023-02-28T08:06:22;5.40;99.90
25410;DHT22;13339;50.840;4.346;2023-02-28T08:08:48;5.70;99.90
25410;DHT22;13339;50.840;4.346;2023-02-28T08:11:15;5.90;99.90
25410;DHT22;13339;50.840;4.346;2023-02-28T08:13:41;6.30;99.90
25410;DHT22;13339;50.840;4.346;2023-02-28T08:16:07;6.50;99.90
25410;DHT22;13339;50.840;4.346;2023-02-28T08:18:33;6.40;99.90
25410;DHT22;13339;50.840;4.346;2023-02-28T08:20:59;6.00;99.90
25410;DHT22;13339;50.840;4.346;2023-02-28T08:23:25;5.50;99.90
25410;DHT22;13339;50.840;4.346;2023-02-28T08:25:57;5.30;99.90
25410;DHT22;13339;50.840;4.346;2023-02-28T08:28:22;5.20;99.90
25410;DHT22;13339;50.840;4.346;2023-02-28T08:30:48;5.00;99.90
25410;DHT22;13339;50.840;4.346;2023-02-28T08:33:14;4.90;99.90
25410;DHT22;13339;50.840;4.346;2023-02-28T08:35:39;4.80;99.90
25410;DHT22;13339;50.840;4.346;2023-02-28T08:38:05;4.60;99.90
25410;DHT22;13339;50.840;4.346;2023-02-28T08:40:30;4.60;99.90
25410;DHT22;13339;50.840;4.346;2023-02-28T08:42:56;4.70;99.90
25410;DHT22;13339;50.840;4.346;2023-02-28T08:45:22;4.60;99.90
25410;DHT22;13339;50.840;4.346;2023-02-28T08:47:47;4.50;99.90
25410;DHT22;13339;50.840;4.346;2023-02-28T08:50:13;4.50;99.90
25410;DHT22;13339;50.840;4.346;2023-02-28T08:52:42;4.50;99.90
25410;DHT22;13339;50.840;4.346;2023-02-28T08:55:09;4.70;99.90
25410;DHT22;13339;50.840;4.346;2023-02-28T08:57:34;4.70;99.90
25410;DHT22;13339;50.840;4.346;2023-02-28T09:00:00;4.50;99.90
25410;DHT22;13339;50.840;4.346;2023-02-28T09:02:30;4.50;99.90
25410;DHT22;13339;50.840;4.346;2023-02-28T09:04:57;4.50;99.90
25410;DHT22;13339;50.840;4.346;2023-02-28T09:07:23;4.60;99.90
25410;DHT22;13339;50.840;4.346;2023-02-28T09:09:49;4.50;99.90
25410;DHT22;13339;50.840;4.346;2023-02-28T09:12:25;4.50;99.90
25410;DHT22;13339;50.840;4.346;2023-02-28T09:14:51;4.40;99.90
25410;DHT22;13339;50.840;4.346;2023-02-28T09:17:17;4.30;99.90
25410;DHT22;13339;50.840;4.346;2023-02-28T09:19:43;4.40;99.90
25410;DHT22;13339;50.840;4.346;2023-02-28T09:22:10;4.50;99.90
25410;DHT22;13339;50.840;4.346;2023-02-28T09:24:38;4.70;99.90
25410;DHT22;13339;50.840;4.346;2023-02-28T09:27:04;4.70;99.90
25410;DHT22;13339;50.840;4.346;2023-02-28T09:29:34;4.80;99.90
25410;DHT22;13339;50.840;4.346;2023-02-28T09:32:00;5.00;99.90
25410;DHT22;13339;50.840;4.346;2023-02-28T09:34:27;4.90;99.90
25410;DHT22;13339;50.840;4.346;2023-02-28T09:36:56;4.90;99.90
25410;DHT22;13339;50.840;4.346;2023-02-28T09:39:22;4.60;99.90
25410;DHT22;13339;50.840;4.346;2023-02-28T09:41:51;4.60;99.90
25410;DHT22;13339;50.840;4.346;2023-02-28T09:46:49;4.90;99.90
25410;DHT22;13339;50.840;4.346;2023-02-28T09:49:20;5.20;99.90
25410;DHT22;13339;50.840;4.346;2023-02-28T09:54:23;5.20;99.90
25410;DHT22;13339;50.840;4.346;2023-02-28T09:57:04;5.30;99.90
25410;DHT22;13339;50.840;4.346;2023-02-28T10:02:18;5.30;99.90
25410;DHT22;13339;50.840;4.346;2023-02-28T10:04:59;5.30;99.90
25410;DHT22;13339;50.840;4.346;2023-02-28T10:10:25;5.00;99.90
25410;DHT22;13339;50.840;4.346;2023-02-28T10:12:57;5.00;99.90
25410;DHT22;13339;50.840;4.346;2023-02-28T10:15:26;5.20;99.90
25410;DHT22;13339;50.840;4.346;2023-02-28T10:18:05;5.40;99.90
25410;DHT22;13339;50.840;4.346;2023-02-28T10:20:37;5.60;99.90
25410;DHT22;13339;50.840;4.346;2023-02-28T10:25:58;5.60;99.90
25410;DHT22;13339;50.840;4.346;2023-02-28T10:28:25;5.60;99.90
25410;DHT22;13339;50.840;4.346;2023-02-28T10:30:52;5.90;99.90
25410;DHT22;13339;50.840;4.346;2023-02-28T10:33:30;5.90;99.90
25410;DHT22;13339;50.840;4.346;2023-02-28T10:35:56;5.80;99.90
25410;DHT22;13339;50.840;4.346;2023-02-28T10:38:42;5.90;99.90
25410;DHT22;13339;50.840;4.346;2023-02-28T10:41:16;6.00;99.90
25410;DHT22;13339;50.840;4.346;2023-02-28T10:43:51;6.10;99.90
25410;DHT22;13339;50.840;4.346;2023-02-28T10:46:19;5.80;99.90
25410;DHT22;13339;50.840;4.346;2023-02-28T10:49:03;5.70;99.90
25410;DHT22;13339;50.840;4.346;2023-02-28T10:51:38;5.80;99.90
25410;DHT22;13339;50.840;4.346;2023-02-28T10:54:04;5.80;99.90
25410;DHT22;13339;50.840;4.346;2023-02-28T10:56:31;6.00;99.90
25410;DHT22;13339;50.840;4.346;2023-02-28T10:59:20;6.30;99.90
25410;DHT22;13339;50.840;4.346;2023-02-28T11:01:48;6.70;99.90
25410;DHT22;13339;50.840;4.346;2023-02-28T11:04:19;6.90;99.90
25410;DHT22;13339;50.840;4.346;2023-02-28T11:06:47;6.80;99.90
25410;DHT22;13339;50.840;4.346;2023-02-28T11:09:22;6.50;99.90
25410;DHT22;13339;50.840;4.346;2023-02-28T11:11:49;6.60;99.90
25410;DHT22;13339;50.840;4.346;2023-02-28T11:14:20;6.40;99.90
25410;DHT22;13339;50.840;4.346;2023-02-28T11:16:47;5.70;99.90
25410;DHT22;13339;50.840;4.346;2023-02-28T11:19:26;5.70;99.90
25410;DHT22;13339;50.840;4.346;2023-02-28T11:22:01;5.80;99.90
25410;DHT22;13339;50.840;4.346;2023-02-28T11:24:41;6.20;99.90
25410;DHT22;13339;50.840;4.346;2023-02-28T11:29:56;6.40;99.90
25410;DHT22;13339;50.840;4.346;2023-02-28T11:32:24;6.50;99.90
25410;DHT22;13339;50.840;4.346;2023-02-28T11:37:38;6.80;99.90
25410;DHT22;13339;50.840;4.346;2023-02-28T11:40:18;6.90;99.90
25410;DHT22;13339;50.840;4.346;2023-02-28T11:43:12;7.10;99.90
25410;DHT22;13339;50.840;4.346;2023-02-28T11:45:54;7.30;99.90
25410;DHT22;13339;50.840;4.346;2023-02-28T11:51:18;7.50;99.90
25410;DHT22;13339;50.840;4.346;2023-02-28T12:05:14;7.00;99.90
25410;DHT22;13339;50.840;4.346;2023-02-28T12:10:37;6.70;99.90
25410;DHT22;13339;50.840;4.346;2023-02-28T12:18:51;6.80;99.90
25410;DHT22;13339;50.840;4.346;2023-02-28T12:24:01;6.50;99.90
25410;DHT22;13339;50.840;4.346;2023-02-28T12:26:39;6.80;99.90
25410;DHT22;13339;50.840;4.346;2023-02-28T12:29:28;6.70;99.90
25410;DHT22;13339;50.840;4.346;2023-02-28T12:32:26;6.70;99.90
25410;DHT22;13339;50.840;4.346;2023-02-28T12:34:57;6.90;99.90
25410;DHT22;13339;50.840;4.346;2023-02-28T12:37:54;7.20;99.90
25410;DHT22;13339;50.840;4.346;2023-02-28T12:40:23;7.50;99.90
25410;DHT22;13339;50.840;4.346;2023-02-28T12:43:02;7.20;99.90
25410;DHT22;13339;50.840;4.346;2023-02-28T12:48:09;6.60;99.90
25410;DHT22;13339;50.840;4.346;2023-02-28T12:50:37;6.60;99.90
25410;DHT22;13339;50.840;4.346;2023-02-28T12:58:58;6.80;99.90
25410;DHT22;13339;50.840;4.346;2023-02-28T13:01:46;6.90;99.90
25410;DHT22;13339;50.840;4.346;2023-02-28T13:09:54;7.60;99.10
25410;DHT22;13339;50.840;4.346;2023-02-28T13:12:20;7.60;98.90
25410;DHT22;13339;50.840;4.346;2023-02-28T13:14:48;7.80;99.10
25410;DHT22;13339;50.840;4.346;2023-02-28T13:17:20;8.00;98.80
25410;DHT22;13339;50.840;4.346;2023-02-28T13:24:56;7.50;99.20
25410;DHT22;13339;50.840;4.346;2023-02-28T13:27:53;7.60;99.10
25410;DHT22;13339;50.840;4.346;2023-02-28T13:35:46;7.50;98.90
25410;DHT22;13339;50.840;4.346;2023-02-28T13:38:16;7.40;99.20
25410;DHT22;13339;50.840;4.346;2023-02-28T13:40:42;7.20;99.10
25410;DHT22;13339;50.840;4.346;2023-02-28T13:43:09;7.10;99.70
25410;DHT22;13339;50.840;4.346;2023-02-28T13:45:34;6.60;99.30
25410;DHT22;13339;50.840;4.346;2023-02-28T13:48:24;6.60;99.60
25410;DHT22;13339;50.840;4.346;2023-02-28T13:50:51;6.70;99.30
25410;DHT22;13339;50.840;4.346;2023-02-28T13:53:26;7.00;99.50
25410;DHT22;13339;50.840;4.346;2023-02-28T13:56:22;7.30;99.00
25410;DHT22;13339;50.840;4.346;2023-02-28T13:59:26;7.50;98.30
25410;DHT22;13339;50.840;4.346;2023-02-28T14:05:01;7.50;98.10
25410;DHT22;13339;50.840;4.346;2023-02-28T14:07:30;7.60;97.80
25410;DHT22;13339;50.840;4.346;2023-02-28T14:10:06;7.60;97.90
25410;DHT22;13339;50.840;4.346;2023-02-28T14:12:57;7.50;97.80
25410;DHT22;13339;50.840;4.346;2023-02-28T14:17:53;7.50;97.90
25410;DHT22;13339;50.840;4.346;2023-02-28T14:20:20;7.20;98.10
25410;DHT22;13339;50.840;4.346;2023-02-28T14:23:01;7.10;98.30
25410;DHT22;13339;50.840;4.346;2023-02-28T14:25:37;6.90;98.50
25410;DHT22;13339;50.840;4.346;2023-02-28T14:31:57;7.10;98.90
25410;DHT22;13339;50.840;4.346;2023-02-28T14:37:02;7.10;98.50
25410;DHT22;13339;50.840;4.346;2023-02-28T14:39:29;6.90;98.90
25410;DHT22;13339;50.840;4.346;2023-02-28T14:41:58;6.90;99.00
25410;DHT22;13339;50.840;4.346;2023-02-28T14:44:28;7.10;99.10
25410;DHT22;13339;50.840;4.346;2023-02-28T14:46:59;7.20;98.80
25410;DHT22;13339;50.840;4.346;2023-02-28T14:49:30;7.30;99.00
25410;DHT22;13339;50.840;4.346;2023-02-28T14:54:41;7.50;98.50
25410;DHT22;13339;50.840;4.346;2023-02-28T14:57:18;7.40;98.80
25410;DHT22;13339;50.840;4.346;2023-02-28T14:59:45;7.30;98.70
25410;DHT22;13339;50.840;4.346;2023-02-28T15:02:23;7.30;98.90
25410;DHT22;13339;50.840;4.346;2023-02-28T15:04:58;7.00;99.10
25410;DHT22;13339;50.840;4.346;2023-02-28T15:07:25;7.00;99.00
25410;DHT22;13339;50.840;4.346;2023-02-28T15:10:26;6.80;99.50
25410;DHT22;13339;50.840;4.346;2023-02-28T15:15:18;7.00;99.70
25410;DHT22;13339;50.840;4.346;2023-02-28T15:17:49;7.00;99.60
25410;DHT22;13339;50.840;4.346;2023-02-28T15:20:17;7.10;99.70
25410;DHT22;13339;50.840;4.346;2023-02-28T15:22:45;7.10;99.80
25410;DHT22;13339;50.840;4.346;2023-02-28T15:25:14;6.90;99.40
25410;DHT22;13339;50.840;4.346;2023-02-28T15:27:46;6.80;99.80
25410;DHT22;13339;50.840;4.346;2023-02-28T15:30:21;6.80;99.90
25410;DHT22;13339;50.840;4.346;2023-02-28T15:33:20;6.90;99.90
25410;DHT22;13339;50.840;4.346;2023-02-28T15:35:46;6.90;99.90
25410;DHT22;13339;50.840;4.346;2023-02-28T15:38:26;6.80;99.90
25410;DHT22;13339;50.840;4.346;2023-02-28T15:40:53;6.70;99.90
25410;DHT22;13339;50.840;4.346;2023-02-28T15:45:55;6.80;99.90
25410;DHT22;13339;50.840;4.346;2023-02-28T15:51:19;6.90;99.90
25410;DHT22;13339;50.840;4.346;2023-02-28T15:53:58;6.70;99.90
25410;DHT22;13339;50.840;4.346;2023-02-28T15:56:34;6.60;99.90
25410;DHT22;13339;50.840;4.346;2023-02-28T15:59:03;6.60;99.90
25410;DHT22;13339;50.840;4.346;2023-02-28T16:01:36;6.60;99.90
25410;DHT22;13339;50.840;4.346;2023-02-28T16:07:00;6.80;99.90
25410;DHT22;13339;50.840;4.346;2023-02-28T16:09:26;7.00;99.90
25410;DHT22;13339;50.840;4.346;2023-02-28T16:11:54;7.00;99.90
25410;DHT22;13339;50.840;4.346;2023-02-28T16:14:23;6.80;99.90
25410;DHT22;13339;50.840;4.346;2023-02-28T16:16:52;6.70;99.90
25410;DHT22;13339;50.840;4.346;2023-02-28T16:19:18;6.50;99.90
25410;DHT22;13339;50.840;4.346;2023-02-28T16:21:45;6.50;99.90
25410;DHT22;13339;50.840;4.346;2023-02-28T16:24:11;6.60;99.90
25410;DHT22;13339;50.840;4.346;2023-02-28T16:26:39;6.70;99.90
25410;DHT22;13339;50.840;4.346;2023-02-28T16:29:05;6.70;99.90
25410;DHT22;13339;50.840;4.346;2023-02-28T16:31:35;6.70;99.90
25410;DHT22;13339;50.840;4.346;2023-02-28T16:34:02;6.80;99.90
25410;DHT22;13339;50.840;4.346;2023-02-28T16:36:29;6.70;99.90
25410;DHT22;13339;50.840;4.346;2023-02-28T16:38:55;6.70;99.90
25410;DHT22;13339;50.840;4.346;2023-02-28T16:41:24;6.60;99.90
25410;DHT22;13339;50.840;4.346;2023-02-28T16:43:53;6.60;99.90
25410;DHT22;13339;50.840;4.346;2023-02-28T16:46:24;6.40;99.90
25410;DHT22;13339;50.840;4.346;2023-02-28T16:48:50;6.40;99.90
25410;DHT22;13339;50.840;4.346;2023-02-28T16:51:17;6.30;99.90
25410;DHT22;13339;50.840;4.346;2023-02-28T16:53:44;6.30;99.90
25410;DHT22;13339;50.840;4.346;2023-02-28T16:56:21;6.40;99.90
25410;DHT22;13339;50.840;4.346;2023-02-28T16:58:48;6.50;99.90
25410;DHT22;13339;50.840;4.346;2023-02-28T17:01:15;6.50;99.90
25410;DHT22;13339;50.840;4.346;2023-02-28T17:03:41;6.40;99.90
25410;DHT22;13339;50.840;4.346;2023-02-28T17:06:20;6.60;99.90
25410;DHT22;13339;50.840;4.346;2023-02-28T17:08:50;6.50;99.90
25410;DHT22;13339;50.840;4.346;2023-02-28T17:11:16;6.70;99.90
25410;DHT22;13339;50.840;4.346;2023-02-28T17:13:42;6.80;99.90
25410;DHT22;13339;50.840;4.346;2023-02-28T17:16:32;6.90;99.90
25410;DHT22;13339;50.840;4.346;2023-02-28T17:19:00;6.90;99.90
25410;DHT22;13339;50.840;4.346;2023-02-28T17:21:26;7.00;99.90
25410;DHT22;13339;50.840;4.346;2023-02-28T17:23:52;6.80;99.90
25410;DHT22;13339;50.840;4.346;2023-02-28T17:26:19;6.80;99.90
25410;DHT22;13339;50.840;4.346;2023-02-28T17:28:47;6.70;99.90
25410;DHT22;13339;50.840;4.346;2023-02-28T17:31:12;6.60;99.90
25410;DHT22;13339;50.840;4.346;2023-02-28T17:33:38;6.70;99.90
25410;DHT22;13339;50.840;4.346;2023-02-28T17:36:04;6.80;99.90
25410;DHT22;13339;50.840;4.346;2023-02-28T17:38:30;6.70;99.90
25410;DHT22;13339;50.840;4.346;2023-02-28T17:40:56;6.80;99.90
25410;DHT22;13339;50.840;4.346;2023-02-28T17:43:26;7.00;99.90
25410;DHT22;13339;50.840;4.346;2023-02-28T17:45:53;7.00;99.90
25410;DHT22;13339;50.840;4.346;2023-02-28T17:48:19;7.10;99.90
25410;DHT22;13339;50.840;4.346;2023-02-28T17:50:44;7.20;99.90
25410;DHT22;13339;50.840;4.346;2023-02-28T17:53:10;7.20;99.90
25410;DHT22;13339;50.840;4.346;2023-02-28T17:55:36;7.20;99.90
25410;DHT22;13339;50.840;4.346;2023-02-28T17:58:02;7.20;99.90
25410;DHT22;13339;50.840;4.346;2023-02-28T18:00:29;7.20;99.90
25410;DHT22;13339;50.840;4.346;2023-02-28T18:02:54;7.30;99.90
25410;DHT22;13339;50.840;4.346;2023-02-28T18:05:20;7.30;99.90